Time;durP1;ratioP1;P1;durP2;ratioP2;P2;SDS_P1;SDS_P2;PMS_P1;PMS_P2;Temp;Humidity;BMP_temperature;BMP_pressure;BME280_temperature;BME280_humidity;BME280_pressure;Samples;Min_cycle;Max_cycle;Signal;HPM_P1;HPM_P2
2020/12/09 00:01:52;;;;;;;44.50;26.42;;;;;;;5.56;67.87;100918.63;5034219;28;20473;-85
2020/12/09 00:04:19;;;;;;;42.75;25.83;;;;;;;5.47;67.62;100925.63;5035185;28;20045;-85
2020/12/09 00:06:47;;;;;;;46.22;26.02;;;;;;;5.37;67.49;100920.34;5035158;28;20393;-86
2020/12/09 00:09:17;;;;;;;47.42;27.30;;;;;;;5.29;67.89;100920.34;5035408;28;20135;-84
2020/12/09 00:11:44;;;;;;;42.00;23.17;;;;;;;5.22;67.59;100918.56;5033961;28;20022;-88
2020/12/09 00:14:11;;;;;;;39.25;23.98;;;;;;;5.13;67.72;100919.41;5033843;28;20131;-85
2020/12/09 00:16:45;;;;;;;43.13;25.95;;;;;;;5.05;67.80;100924.63;5033513;28;20408;-84
2020/12/09 00:19:11;;;;;;;45.50;24.42;;;;;;;4.91;67.70;100926.31;5032744;28;20013;-85
2020/12/09 00:21:38;;;;;;;41.55;24.63;;;;;;;4.81;67.83;100926.28;5032153;28;20424;-85
2020/12/09 00:24:05;;;;;;;47.67;26.40;;;;;;;4.71;67.79;100927.09;5033639;28;20385;-85
2020/12/09 00:26:33;;;;;;;49.65;27.70;;;;;;;4.68;68.40;100932.31;5034978;28;20044;-85
2020/12/09 00:29:00;;;;;;;48.47;26.40;;;;;;;4.62;68.24;100940.16;5032561;28;20025;-85
2020/12/09 00:31:29;;;;;;;50.42;27.70;;;;;;;4.56;68.23;100946.25;5034805;28;20025;-85
2020/12/09 00:33:57;;;;;;;50.40;29.15;;;;;;;4.49;68.13;100940.06;5034620;28;20472;-85
2020/12/09 00:36:24;;;;;;;44.72;24.60;;;;;;;4.42;68.70;100938.28;5034766;28;20033;-86
2020/12/09 00:38:52;;;;;;;49.58;27.40;;;;;;;4.40;68.71;100934.78;5035055;28;20065;-84
2020/12/09 00:41:23;;;;;;;44.50;25.30;;;;;;;4.40;68.71;100947.91;5031270;28;20381;-85
2020/12/09 00:43:50;;;;;;;60.40;28.90;;;;;;;4.30;68.65;100944.34;5034387;28;20083;-88
2020/12/09 00:46:19;;;;;;;49.25;27.20;;;;;;;4.30;68.71;100939.09;5034425;28;20033;-86
2020/12/09 00:48:45;;;;;;;51.33;27.08;;;;;;;4.27;68.37;100943.41;5034761;28;20064;-86
2020/12/09 00:51:15;;;;;;;58.55;30.85;;;;;;;4.25;69.19;100934.66;5034093;28;20423;-85
2020/12/09 00:53:42;;;;;;;54.35;29.73;;;;;;;4.20;69.58;100942.50;5032389;28;20026;-86
2020/12/09 00:56:09;;;;;;;61.03;32.28;;;;;;;4.17;69.61;100938.09;5034365;28;20032;-89
2020/12/09 00:58:36;;;;;;;59.47;29.60;;;;;;;4.18;69.87;100933.75;5034078;28;20017;-85
2020/12/09 01:01:05;;;;;;;63.95;33.13;;;;;;;4.18;69.64;100939.84;5033588;28;20036;-86
2020/12/09 01:03:32;;;;;;;54.33;30.33;;;;;;;4.15;69.49;100947.72;5031956;28;20037;-87
2020/12/09 01:06:00;;;;;;;50.58;28.20;;;;;;;4.13;69.79;100944.19;5033062;28;20473;-84
2020/12/09 01:08:28;;;;;;;65.25;32.55;;;;;;;4.09;69.70;100938.91;5031945;28;20095;-85
2020/12/09 01:10:55;;;;;;;59.30;30.15;;;;;;;4.07;69.12;100945.91;5030657;28;20025;-85
2020/12/09 01:13:22;;;;;;;56.25;28.60;;;;;;;4.04;69.34;100945.00;5033200;28;20579;-89
2020/12/09 01:15:48;;;;;;;50.47;26.75;;;;;;;3.99;69.15;100943.22;5032986;28;20366;-85
2020/12/09 01:18:15;;;;;;;47.97;26.00;;;;;;;3.93;68.92;100943.16;5034372;28;20021;-86
2020/12/09 01:20:42;;;;;;;45.95;24.83;;;;;;;3.83;68.70;100948.28;5028707;28;20473;-86
2020/12/09 01:23:09;;;;;;;43.67;24.90;;;;;;;3.75;68.65;100951.72;5033973;28;20384;-86
2020/12/09 01:25:36;;;;;;;45.90;25.42;;;;;;;3.68;68.45;100956.03;5034190;28;20032;-86
2020/12/09 01:28:04;;;;;;;44.40;24.23;;;;;;;3.61;68.53;100957.69;5033114;28;20069;-84
2020/12/09 01:30:32;;;;;;;190.55;37.88;;;;;;;3.56;68.89;100957.66;5033202;28;20418;-84
2020/12/09 01:32:59;;;;;;;156.43;25.88;;;;;;;3.54;69.17;100963.75;5033270;28;20029;-86
2020/12/09 01:35:26;;;;;;;279.90;42.33;;;;;;;3.51;69.65;100961.94;5033518;28;20100;-86
2020/12/09 01:37:53;;;;;;;204.02;31.92;;;;;;;3.53;69.86;100964.59;5032660;28;20384;-91
2020/12/09 01:40:21;;;;;;;120.35;27.60;;;;;;;3.51;70.18;100968.94;5032393;28;20033;-90
2020/12/09 01:42:50;;;;;;;185.95;33.78;;;;;;;3.49;69.91;100961.06;5032447;28;20443;-86
2020/12/09 02:00:02;;;;;;;88.82;22.15;;;;;;;3.21;69.74;100978.19;5010268;28;20029;-85
2020/12/09 02:02:30;;;;;;;144.43;29.40;;;;;;;3.17;70.07;100982.50;5013739;28;20523;-85
2020/12/09 02:04:57;;;;;;;120.43;30.33;;;;;;;3.13;69.73;100978.09;5012973;28;20480;-86
2020/12/09 02:07:29;;;;;;;52.78;19.67;;;;;;;3.13;69.96;100975.47;5013790;28;20086;-85
2020/12/09 02:09:58;;;;;;;66.38;21.00;;;;;;;3.10;69.93;100975.44;5012647;28;20049;-85
2020/12/09 02:12:27;;;;;;;47.25;18.27;;;;;;;3.08;70.11;100974.56;5013997;28;20025;-85
2020/12/09 02:15:20;;;;;;;69.95;20.70;;;;;;;3.08;70.25;100974.56;5014065;28;20045;-87
2020/12/09 02:17:47;;;;;;;137.77;28.02;;;;;;;3.10;70.22;100970.19;5014909;28;20029;-87
2020/12/09 02:20:13;;;;;;;192.32;30.25;;;;;;;3.13;70.58;100978.09;5000791;28;20042;-84
2020/12/09 02:22:51;;;;;;;198.60;32.88;;;;;;;3.15;70.56;100984.22;5019486;28;20041;-86
2020/12/09 02:25:18;;;;;;;124.72;27.38;;;;;;;3.14;70.45;100978.97;5016420;28;20026;-84
2020/12/09 02:27:44;;;;;;;125.15;26.50;;;;;;;3.17;70.57;100986.88;5014233;28;20165;-85
2020/12/09 02:30:12;;;;;;;141.50;27.27;;;;;;;3.18;70.55;100984.28;5013600;28;20033;-85
2020/12/09 02:32:38;;;;;;;135.70;28.70;;;;;;;3.21;70.91;100993.91;5014052;28;20056;-86
2020/12/09 02:35:06;;;;;;;143.63;27.63;;;;;;;3.26;71.16;100991.34;5014026;28;20113;-86
2020/12/09 02:37:34;;;;;;;276.77;39.13;;;;;;;3.23;71.71;100994.81;5014054;28;20029;-88
2020/12/09 02:40:00;;;;;;;237.15;36.28;;;;;;;3.26;71.67;100992.22;5016339;28;20030;-84
2020/12/09 02:42:27;;;;;;;143.60;29.70;;;;;;;3.29;71.78;100991.38;5017701;28;20029;-86
2020/12/09 02:44:53;;;;;;;200.93;32.45;;;;;;;3.22;72.04;100995.66;5017763;28;20022;-88
2020/12/09 02:47:23;;;;;;;189.88;27.02;;;;;;;3.22;72.10;100993.91;5017787;28;20109;-91
2020/12/09 02:49:53;;;;;;;169.35;34.72;;;;;;;3.17;71.71;100987.75;5016926;28;20045;-89
2020/12/09 02:52:19;;;;;;;236.40;30.27;;;;;;;3.01;72.14;100980.56;5033349;28;20080;-86
2020/12/09 02:54:46;;;;;;;210.73;32.03;;;;;;;3.04;71.88;100983.19;5036243;28;20381;-87
2020/12/09 02:57:12;;;;;;;305.77;35.25;;;;;;;2.89;72.51;100984.78;5037059;28;20506;-88
2020/12/09 02:59:39;;;;;;;101.97;25.98;;;;;;;2.92;72.07;100979.56;5037563;28;20493;-88
2020/12/09 03:02:05;;;;;;;163.93;29.08;;;;;;;2.96;72.21;100977.88;5037030;28;20109;-86
2020/12/09 03:04:32;;;;;;;228.48;28.58;;;;;;;2.92;71.99;100981.31;5032651;28;20034;-90
2020/12/09 03:06:59;;;;;;;146.35;27.45;;;;;;;2.87;72.29;100978.63;5017884;28;20104;-92
2020/12/09 03:09:25;;;;;;;129.27;29.20;;;;;;;2.84;72.07;100989.06;5017110;28;20032;-88
2020/12/09 03:11:52;;;;;;;105.95;22.30;;;;;;;2.76;72.02;100985.44;5015906;28;20371;-88
2020/12/09 03:14:18;;;;;;;158.85;23.20;;;;;;;2.57;72.47;100982.56;5017265;28;20033;-86
2020/12/09 03:16:45;;;;;;;132.77;24.63;;;;;;;2.42;72.05;100991.06;5017415;28;20034;-92
2020/12/09 03:19:11;;;;;;;79.93;23.08;;;;;;;2.38;73.02;100993.59;5016360;28;20032;-86
2020/12/09 03:21:42;;;;;;;160.35;29.45;;;;;;;2.47;72.50;100990.22;5016813;28;20033;-92
2020/12/09 03:24:09;;;;;;;116.20;24.63;;;;;;;2.31;72.89;100999.59;5015948;28;20041;-91
2020/12/09 03:26:36;;;;;;;83.00;20.85;;;;;;;2.19;73.01;100988.03;5015800;28;20030;-92
2020/12/09 03:29:03;;;;;;;98.90;25.83;;;;;;;2.38;72.46;100986.63;4999229;28;20566;-92
2020/12/09 03:31:29;;;;;;;66.53;23.10;;;;;;;2.37;72.55;101002.31;5016996;28;20040;-87
2020/12/09 03:33:56;;;;;;;191.00;28.40;;;;;;;2.26;72.84;100992.53;5016592;28;20033;-85
2020/12/09 03:36:22;;;;;;;139.90;27.63;;;;;;;2.19;72.98;100989.78;5017032;28;20469;-86
2020/12/09 03:39:08;;;;;;;128.60;24.67;;;;;;;2.19;72.69;100993.28;5017130;28;20026;-86
2020/12/09 03:41:35;;;;;;;160.75;28.52;;;;;;;2.09;72.87;100999.22;5015560;28;20038;-86
2020/12/09 03:44:01;;;;;;;104.15;26.35;;;;;;;2.10;72.84;101004.47;5016326;28;20608;-85
2020/12/09 03:46:27;;;;;;;113.47;26.10;;;;;;;2.08;72.98;101006.19;5016764;28;20389;-85
2020/12/09 03:48:54;;;;;;;222.13;32.42;;;;;;;2.07;72.68;101008.78;5034861;28;20021;-86
2020/12/09 03:51:20;;;;;;;73.00;23.85;;;;;;;2.07;72.85;101014.00;5035286;28;20036;-86
2020/12/09 03:53:47;;;;;;;137.35;27.77;;;;;;;1.96;73.52;101015.53;5036122;28;20025;-85
2020/12/09 03:56:13;;;;;;;159.10;32.45;;;;;;;1.98;73.19;101017.34;5036534;28;20040;-87
2020/12/09 03:58:41;;;;;;;142.73;31.30;;;;;;;2.01;73.03;101013.91;5035982;28;20038;-86
2020/12/09 04:01:07;;;;;;;117.60;29.58;;;;;;;2.01;73.66;101021.75;5028513;28;20018;-86
2020/12/09 04:03:35;;;;;;;198.10;40.92;;;;;;;2.07;73.09;101014.00;5016009;28;20033;-86
2020/12/09 04:06:02;;;;;;;144.80;28.27;;;;;;;1.96;73.79;101012.91;5016328;28;20038;-87
2020/12/09 04:08:28;;;;;;;109.93;26.73;;;;;;;1.96;73.75;101015.53;5016329;28;20053;-85
2020/12/09 04:10:54;;;;;;;99.80;29.50;;;;;;;2.03;73.52;101018.31;5023045;28;20111;-86
2020/12/09 04:13:21;;;;;;;73.25;28.85;;;;;;;2.06;73.47;101012.25;5034354;28;20480;-86
2020/12/09 04:15:47;;;;;;;230.05;38.85;;;;;;;2.02;73.84;101015.63;5034178;28;20030;-86
2020/12/09 04:18:14;;;;;;;86.80;26.23;;;;;;;1.99;74.29;101026.03;5034456;28;20396;-85
2020/12/09 04:20:40;;;;;;;119.85;32.05;;;;;;;2.15;73.66;101009.78;5034259;28;20029;-87
2020/12/09 04:23:07;;;;;;;112.82;30.33;;;;;;;2.21;73.58;101011.63;5033810;28;20159;-86
2020/12/09 04:25:40;;;;;;;149.05;34.25;;;;;;;2.22;73.93;101019.50;5034577;28;20133;-90
2020/12/09 04:28:13;;;;;;;203.43;38.45;;;;;;;2.32;73.68;101014.41;5034677;28;20025;-93
2020/12/09 04:30:48;;;;;;;259.88;40.90;;;;;;;2.27;73.88;101011.72;5032026;28;20116;-88
2020/12/09 04:33:14;;;;;;;107.35;32.40;;;;;;;2.36;73.30;101009.25;5033848;28;20104;-86
2020/12/09 04:35:41;;;;;;;174.23;37.15;;;;;;;2.34;73.67;101018.78;5033712;28;20384;-85
2020/12/09 04:38:07;;;;;;;148.95;33.05;;;;;;;2.32;74.01;101022.25;5033893;28;20030;-86
2020/12/09 04:40:34;;;;;;;172.25;33.72;;;;;;;2.38;73.83;101022.34;5031941;28;20029;-85
2020/12/09 04:43:02;;;;;;;93.90;26.13;;;;;;;2.38;73.76;101020.63;5033645;28;20485;-87
2020/12/09 04:45:30;;;;;;;138.73;33.83;;;;;;;2.46;73.76;101031.22;5033884;28;20025;-85
2020/12/09 04:48:05;;;;;;;150.50;33.25;;;;;;;2.56;73.45;101020.03;5031094;28;20025;-88
2020/12/09 04:50:36;;;;;;;132.75;33.03;;;;;;;2.61;73.48;101016.63;5033737;28;20033;-92
2020/12/09 04:53:29;;;;;;;102.15;27.73;;;;;;;2.69;73.33;101020.22;5031453;28;20451;-90
2020/12/09 04:55:58;;;;;;;173.40;35.05;;;;;;;2.63;73.25;101013.19;5032779;28;20033;-94
2020/12/09 04:58:52;;;;;;;186.32;34.80;;;;;;;2.71;73.05;101013.28;5033720;28;20030;-86
2020/12/09 05:01:18;;;;;;;182.73;32.72;;;;;;;2.43;73.92;101018.97;5025753;28;20492;-91
2020/12/09 05:03:46;;;;;;;248.60;33.55;;;;;;;2.35;73.94;101020.56;5032500;28;20041;-93
2020/12/09 05:06:15;;;;;;;115.00;28.10;;;;;;;2.39;73.89;101016.28;5033353;28;20116;-91
2020/12/09 05:08:52;;;;;;;98.03;27.63;;;;;;;2.51;73.51;101011.25;5031167;28;20085;-89
2020/12/09 05:11:23;;;;;;;83.13;25.65;;;;;;;2.39;73.95;101018.88;5046213;28;20121;-87
2020/12/09 05:13:55;;;;;;;150.63;27.83;;;;;;;2.42;74.04;101016.34;5033290;28;20022;-86
2020/12/09 05:16:22;;;;;;;136.15;31.90;;;;;;;2.41;73.70;101014.56;5034097;28;20415;-85
2020/12/09 05:18:56;;;;;;;156.13;32.15;;;;;;;2.43;73.48;101026.81;5034693;28;20083;-89
2020/12/09 05:21:25;;;;;;;106.97;27.48;;;;;;;2.37;73.71;101023.22;5032664;28;20048;-87
2020/12/09 05:23:56;;;;;;;111.38;27.75;;;;;;;2.42;73.60;101024.19;5029829;28;20384;-86
2020/12/09 05:26:33;;;;;;;167.52;29.27;;;;;;;2.32;74.12;101022.25;5032684;28;20068;-86
2020/12/09 05:32:10;;;;;;;117.25;30.23;;;;;;;2.42;73.55;101047.72;5102744;27;20420;-87
2020/12/09 05:34:36;;;;;;;129.18;27.45;;;;;;;2.45;73.69;101058.22;5095237;28;20047;-88
2020/12/09 05:37:05;;;;;;;152.15;27.98;;;;;;;2.30;73.98;101063.19;5093589;28;20063;-86
2020/12/09 05:39:32;;;;;;;100.50;26.83;;;;;;;2.36;73.58;101047.63;5104530;28;20024;-90
2020/12/09 05:42:12;;;;;;;96.70;27.73;;;;;;;2.32;73.83;101048.38;5101328;28;20028;-91
2020/12/09 05:44:42;;;;;;;102.80;27.73;;;;;;;2.42;73.60;101053.81;5094809;28;20047;-89
2020/12/09 05:47:09;;;;;;;95.57;28.02;;;;;;;2.43;73.88;101060.81;5086204;28;20070;-89
2020/12/09 05:49:37;;;;;;;103.78;26.60;;;;;;;2.38;74.25;101067.69;5082849;28;20108;-89
2020/12/09 05:52:20;;;;;;;171.43;36.10;;;;;;;2.44;73.90;101059.06;5079592;28;20033;-92
2020/12/09 05:54:50;;;;;;;191.32;39.40;;;;;;;2.38;73.91;101066.81;5079062;28;20032;-93
2020/12/09 05:57:22;;;;;;;115.75;30.15;;;;;;;2.35;74.13;101074.59;5079151;28;20096;-91
2020/12/09 05:59:49;;;;;;;97.35;31.77;;;;;;;2.39;73.96;101072.09;5076865;28;20437;-94
2020/12/09 06:05:01;;;;;;;128.90;35.42;;;;;;;2.48;73.88;101080.91;5080777;27;20204;-90
2020/12/09 06:07:29;;;;;;;128.30;33.78;;;;;;;2.59;73.85;101067.19;5070985;28;20426;-92
2020/12/09 06:10:17;;;;;;;121.97;31.55;;;;;;;2.74;73.59;101065.66;5064640;28;20124;-94
2020/12/09 06:12:53;;;;;;;105.28;35.90;;;;;;;2.76;73.44;101063.94;5046244;28;20041;-89
2020/12/09 06:15:21;;;;;;;145.43;35.55;;;;;;;2.64;73.81;101068.97;5051222;28;20079;-92
2020/12/09 06:17:47;;;;;;;162.35;36.92;;;;;;;2.49;74.28;101065.25;5049481;28;20088;-88
2020/12/09 06:20:14;;;;;;;87.82;33.30;;;;;;;2.59;74.19;101068.91;5065053;22;20041;-82
2020/12/09 06:22:41;;;;;;;143.88;33.42;;;;;;;2.58;73.97;101065.41;5062234;28;20114;-82
2020/12/09 06:25:10;;;;;;;141.88;35.88;;;;;;;2.52;73.25;101070.53;5057542;28;20025;-82
2020/12/09 06:27:37;;;;;;;160.32;37.05;;;;;;;2.58;73.55;101067.16;5059123;28;20462;-83
2020/12/09 06:30:07;;;;;;;218.45;43.80;;;;;;;2.36;73.12;101076.38;5061166;28;20108;-82
2020/12/09 06:32:48;;;;;;;159.98;38.75;;;;;;;2.47;73.54;101066.06;5050338;28;20427;-83
2020/12/09 06:35:19;;;;;;;111.28;41.15;;;;;;;2.43;73.46;101076.50;5064584;28;20435;-83
2020/12/09 06:43:38;;;;;;;168.63;34.17;;;;;;;2.35;73.11;101072.00;5054268;27;20466;-82
2020/12/09 06:46:04;;;;;;;147.27;31.13;;;;;;;2.21;72.91;101064.78;5057361;28;20035;-83
2020/12/09 06:48:37;;;;;;;139.20;35.03;;;;;;;2.38;72.94;101061.56;5046962;28;20396;-83
2020/12/09 06:51:40;;;;;;;125.25;33.92;;;;;;;2.35;73.23;101072.88;5055105;28;20029;-82
2020/12/09 06:54:14;;;;;;;100.60;31.53;;;;;;;2.20;73.57;101077.84;5050588;28;20052;-83
2020/12/09 06:56:43;;;;;;;80.10;30.83;;;;;;;2.31;73.49;101073.69;5049849;28;20112;-82
2020/12/09 06:59:26;;;;;;;120.20;33.75;;;;;;;2.45;73.26;101068.69;5050141;28;20025;-83
2020/12/09 07:02:08;;;;;;;133.95;36.17;;;;;;;2.48;73.06;101068.75;5048914;28;20041;-82
2020/12/09 07:04:54;;;;;;;93.22;31.20;;;;;;;2.36;73.08;101073.75;5050539;28;20021;-82
2020/12/09 07:07:38;;;;;;;123.88;30.50;;;;;;;2.43;73.03;101086.97;5050020;28;20444;-82
2020/12/09 07:13:06;;;;;;;141.00;37.75;;;;;;;2.33;73.47;101078.91;5078245;28;20576;-82
2020/12/09 07:15:32;;;;;;;101.75;30.75;;;;;;;2.21;73.54;101096.16;5046192;28;20037;-83
2020/12/09 07:17:59;;;;;;;130.60;36.33;;;;;;;2.35;73.18;101096.41;5069852;28;20111;-82
2020/12/09 07:20:25;;;;;;;85.43;30.75;;;;;;;2.13;73.17;101103.00;5058967;28;20025;-83
2020/12/09 07:22:51;;;;;;;185.57;39.05;;;;;;;2.18;73.68;101105.66;5050036;28;20102;-83
2020/12/09 07:25:18;;;;;;;89.00;29.85;;;;;;;2.09;74.04;101112.50;5049893;28;20053;-84
2020/12/09 07:27:45;;;;;;;99.13;35.95;;;;;;;2.19;73.70;101108.31;5047809;28;20048;-82
2020/12/09 07:30:15;;;;;;;88.30;30.15;;;;;;;2.26;73.55;101099.72;5049777;28;20112;-86
2020/12/09 07:32:41;;;;;;;128.50;35.00;;;;;;;2.38;73.22;101095.56;5049855;28;20029;-86
2020/12/09 07:35:10;;;;;;;131.23;33.15;;;;;;;2.25;73.64;101087.50;5046492;28;20365;-86
2020/12/09 07:37:40;;;;;;;111.88;37.03;;;;;;;2.30;73.33;101094.56;5047385;28;20052;-86
2020/12/09 07:40:11;;;;;;;138.80;36.92;;;;;;;2.28;73.34;101093.66;5043802;28;20362;-87
2020/12/09 07:42:38;;;;;;;92.60;32.63;;;;;;;2.41;73.06;101099.13;5036760;28;20083;-87
2020/12/09 07:45:15;;;;;;;92.05;31.08;;;;;;;2.44;73.22;101098.28;5034803;28;20048;-89
2020/12/09 07:47:42;;;;;;;90.90;33.20;;;;;;;2.34;73.15;101101.59;5042712;28;20113;-86
2020/12/09 07:50:18;;;;;;;147.27;34.15;;;;;;;2.33;73.27;101099.84;5083776;22;20038;-93
2020/12/09 07:52:49;;;;;;;107.38;32.40;;;;;;;2.36;73.11;101105.16;5010840;28;20045;-96
2020/12/09 07:55:18;;;;;;;80.80;31.75;;;;;;;2.34;72.99;101105.09;5009549;28;20485;-86
2020/12/09 07:57:45;;;;;;;80.10;30.70;;;;;;;2.36;73.01;101107.75;5011117;28;20068;-85
2020/12/09 08:00:14;;;;;;;91.70;31.48;;;;;;;2.38;73.39;101106.03;5009811;28;20485;-83
2020/12/09 08:02:43;;;;;;;134.43;34.92;;;;;;;2.43;72.98;101105.28;5009630;28;20440;-85
2020/12/09 08:05:20;;;;;;;81.78;30.67;;;;;;;2.55;72.84;101107.19;5009975;28;20060;-86
2020/12/09 08:08:05;;;;;;;122.97;36.35;;;;;;;2.42;72.91;101110.47;5010270;28;20030;-85
2020/12/09 08:10:34;;;;;;;122.22;34.75;;;;;;;2.28;73.28;101111.94;5009629;28;20087;-86
2020/12/09 08:16:00;;;;;;;107.60;34.47;;;;;;;2.38;72.86;101120.00;5049862;28;20455;-83
2020/12/09 08:18:27;;;;;;;83.45;32.30;;;;;;;2.32;72.92;101109.44;5024686;28;20034;-84
2020/12/09 08:20:54;;;;;;;114.78;32.90;;;;;;;2.28;72.79;101105.00;5030510;28;20409;-86
2020/12/09 08:23:22;;;;;;;83.97;31.73;;;;;;;2.28;73.46;101111.94;5013537;28;20473;-87
2020/12/09 08:28:36;;;;;;;94.38;32.17;;;;;;;2.26;73.32;101112.81;5071191;28;20489;-87
2020/12/09 08:31:19;;;;;;;123.38;34.78;;;;;;;2.38;73.27;101106.94;5034740;28;20507;-80
2020/12/09 08:33:46;;;;;;;79.45;28.42;;;;;;;2.36;73.15;101108.63;5031218;28;20017;-84
2020/12/09 08:36:14;;;;;;;91.57;30.88;;;;;;;2.40;73.08;101107.81;5030644;28;20029;-81
2020/12/09 08:38:44;;;;;;;93.90;30.90;;;;;;;2.55;72.94;101108.94;5031461;28;20025;-81
2020/12/09 08:41:13;;;;;;;82.60;29.92;;;;;;;2.54;73.01;101109.81;5030865;28;20030;-83
2020/12/09 08:43:41;;;;;;;70.75;31.17;;;;;;;2.58;72.96;101116.88;5030929;28;20033;-81
2020/12/09 08:46:10;;;;;;;97.88;34.28;;;;;;;2.71;72.85;101110.09;5030995;28;20056;-89
2020/12/09 08:48:38;;;;;;;78.80;33.08;;;;;;;2.73;72.82;101108.41;5029761;28;20022;-85
2020/12/09 08:51:05;;;;;;;89.55;31.95;;;;;;;2.70;72.80;101110.94;5029756;28;20034;-84
2020/12/09 08:53:32;;;;;;;83.45;32.28;;;;;;;2.79;72.96;101111.13;5030739;28;20034;-82
2020/12/09 08:55:59;;;;;;;81.97;30.55;;;;;;;2.86;72.93;101106.84;5030050;28;20115;-83
2020/12/09 08:58:25;;;;;;;102.85;32.85;;;;;;;2.84;73.11;101100.69;5030338;28;20104;-85
2020/12/09 09:00:53;;;;;;;81.40;33.10;;;;;;;2.90;72.80;101103.41;5033733;28;20394;-82
2020/12/09 09:03:25;;;;;;;88.22;31.77;;;;;;;2.91;73.14;101094.72;5029738;28;20072;-82
2020/12/09 09:05:55;;;;;;;80.15;31.98;;;;;;;2.94;72.88;101099.09;5026783;28;20030;-83
2020/12/09 09:08:21;;;;;;;79.10;32.72;;;;;;;2.99;72.81;101097.44;5029352;28;20085;-84
2020/12/09 09:10:49;;;;;;;100.18;34.15;;;;;;;2.95;73.19;101093.03;5028840;28;20026;-86
2020/12/09 09:13:15;;;;;;;80.90;32.65;;;;;;;3.08;72.82;101089.75;5029588;28;20045;-83
2020/12/09 09:15:42;;;;;;;89.63;32.78;;;;;;;3.10;72.66;101095.84;5029093;28;20354;-84
2020/12/09 09:18:09;;;;;;;111.57;36.97;;;;;;;3.04;73.28;101091.44;5029698;28;20037;-81
2020/12/09 09:20:36;;;;;;;99.78;35.60;;;;;;;3.10;73.11;101095.84;5029714;28;20021;-78
2020/12/09 09:23:04;;;;;;;94.68;35.88;;;;;;;3.02;73.10;101107.97;5029372;28;20045;-82
2020/12/09 09:25:31;;;;;;;96.32;34.67;;;;;;;3.14;73.10;101100.31;5029577;28;20164;-81
2020/12/09 09:27:57;;;;;;;118.13;37.42;;;;;;;3.10;72.89;101090.63;5029419;28;20384;-81
2020/12/09 09:30:24;;;;;;;109.53;36.95;;;;;;;3.22;72.65;101090.81;5028810;28;20052;-80
2020/12/09 09:32:50;;;;;;;124.47;38.47;;;;;;;3.31;72.41;101104.91;5029166;28;20041;-81
2020/12/09 09:35:18;;;;;;;168.73;41.10;;;;;;;3.33;72.81;101103.19;5028669;28;20100;-80
2020/12/09 09:37:44;;;;;;;93.88;32.00;;;;;;;3.30;72.74;101103.13;5026749;28;20060;-82
2020/12/09 09:40:11;;;;;;;94.72;35.63;;;;;;;3.30;72.89;101103.13;5012218;28;20112;-83
2020/12/09 09:42:38;;;;;;;86.53;33.50;;;;;;;3.36;72.71;101108.44;5015962;28;20113;-85
2020/12/09 09:45:08;;;;;;;72.32;29.48;;;;;;;3.39;72.33;101100.66;5016137;28;20477;-87
2020/12/09 09:47:35;;;;;;;91.45;34.15;;;;;;;3.32;72.80;101099.66;5013796;28;20081;-85
2020/12/09 09:50:02;;;;;;;100.55;35.55;;;;;;;3.37;72.57;101094.50;5016982;28;20050;-88
2020/12/09 09:52:32;;;;;;;123.07;37.42;;;;;;;3.34;73.13;101091.81;5016110;28;20022;-86
2020/12/09 09:54:58;;;;;;;108.63;35.50;;;;;;;3.46;72.33;101094.63;5018829;28;20523;-88
2020/12/09 09:57:24;;;;;;;100.63;37.55;;;;;;;3.50;72.31;101088.56;5012154;28;20034;-89
2020/12/09 09:59:51;;;;;;;98.60;36.72;;;;;;;3.53;72.51;101090.34;5011011;28;20065;-87
2020/12/09 10:02:17;;;;;;;91.13;35.63;;;;;;;3.56;72.36;101096.50;5014536;28;20366;-92
2020/12/09 10:04:44;;;;;;;95.80;34.08;;;;;;;3.61;72.12;101096.56;5015159;28;20030;-87
2020/12/09 10:07:11;;;;;;;97.10;33.25;;;;;;;3.62;72.36;101090.47;5005613;28;20030;-87
2020/12/09 10:09:38;;;;;;;101.20;35.85;;;;;;;3.66;72.43;101089.63;5011422;28;20044;-86
2020/12/09 10:12:04;;;;;;;90.47;33.60;;;;;;;3.70;72.28;101088.81;5014399;28;20026;-88
2020/12/09 10:14:30;;;;;;;87.18;36.03;;;;;;;3.75;72.06;101091.50;5015101;28;20026;-88
2020/12/09 10:17:00;;;;;;;89.53;32.63;;;;;;;3.75;71.82;101091.50;5015465;28;20478;-89
2020/12/09 10:19:26;;;;;;;99.20;34.97;;;;;;;3.72;72.01;101089.69;5015959;28;20057;-89
2020/12/09 10:21:52;;;;;;;92.00;33.70;;;;;;;3.74;72.10;101089.75;5016003;28;20034;-88
2020/12/09 10:24:18;;;;;;;94.38;34.70;;;;;;;3.76;72.54;101088.00;5001281;28;20061;-87
2020/12/09 10:26:46;;;;;;;103.50;36.70;;;;;;;3.77;72.24;101083.66;4995482;28;20045;-87
2020/12/09 10:29:12;;;;;;;109.20;36.53;;;;;;;3.84;71.84;101075.88;4995255;28;20041;-91
2020/12/09 10:34:24;;;;;;;134.10;38.55;;;;;;;3.97;71.95;101070.78;5076142;28;20458;-85
2020/12/09 10:36:52;;;;;;;128.93;39.70;;;;;;;4.01;72.21;101069.94;5070190;28;20041;-85
2020/12/09 10:39:20;;;;;;;101.20;35.88;;;;;;;4.07;71.76;101067.38;5070181;28;20388;-86
2020/12/09 10:41:47;;;;;;;111.32;37.20;;;;;;;4.04;71.74;101064.72;5062079;28;20056;-85
2020/12/09 10:44:14;;;;;;;136.07;39.40;;;;;;;4.12;71.99;101059.56;5059006;28;20037;-84
2020/12/09 10:46:41;;;;;;;105.00;36.58;;;;;;;4.15;71.87;101070.97;5062088;28;20715;-85
2020/12/09 10:49:10;;;;;;;99.45;35.90;;;;;;;4.08;71.66;101068.28;5057139;28;20065;-85
2020/12/09 10:51:43;;;;;;;105.53;37.97;;;;;;;4.23;71.39;101057.06;5055044;28;20362;-87
2020/12/09 10:54:09;;;;;;;95.88;35.10;;;;;;;4.24;71.93;101059.69;5067328;28;20072;-86
2020/12/09 10:56:35;;;;;;;88.28;33.90;;;;;;;4.21;71.91;101059.63;5057395;28;20458;-85
2020/12/09 10:59:02;;;;;;;92.28;32.28;;;;;;;4.31;71.86;101060.59;5057745;28;20030;-85
2020/12/09 11:01:30;;;;;;;91.85;34.35;;;;;;;4.31;71.44;101064.13;5053746;28;20120;-85
2020/12/09 11:03:57;;;;;;;94.78;33.70;;;;;;;4.37;71.26;101064.19;5061316;28;20112;-86
2020/12/09 11:06:29;;;;;;;103.15;34.00;;;;;;;4.27;71.39;101064.06;5068595;28;20078;-84
2020/12/09 11:08:56;;;;;;;98.78;37.72;;;;;;;4.18;71.58;101055.25;5056274;28;20029;-85
2020/12/09 11:11:23;;;;;;;99.85;36.35;;;;;;;4.32;71.11;101062.38;5069619;28;20124;-85
2020/12/09 11:13:49;;;;;;;93.10;34.25;;;;;;;4.19;71.49;101058.75;5065132;28;20029;-84
2020/12/09 11:16:16;;;;;;;103.75;34.50;;;;;;;4.20;71.57;101055.28;5059341;28;20030;-86
2020/12/09 11:18:43;;;;;;;97.38;33.78;;;;;;;4.17;71.55;101053.47;5059706;28;20067;-90
2020/12/09 11:21:10;;;;;;;100.72;35.10;;;;;;;4.20;71.83;101050.03;5063083;28;20032;-84
2020/12/09 11:23:37;;;;;;;91.90;32.72;;;;;;;4.16;71.94;101041.25;5061676;28;20021;-87
2020/12/09 11:26:07;;;;;;;95.18;32.40;;;;;;;4.30;71.45;101044.00;5058896;28;20029;-85
2020/12/09 11:28:34;;;;;;;94.55;32.45;;;;;;;4.28;71.21;101034.38;5058824;28;20017;-84
2020/12/09 11:31:00;;;;;;;87.80;32.42;;;;;;;4.34;71.56;101040.53;5059440;28;20029;-84
2020/12/09 11:33:27;;;;;;;90.18;32.33;;;;;;;4.24;71.51;101036.09;5058753;28;20028;-88
2020/12/09 11:35:53;;;;;;;83.53;32.20;;;;;;;4.36;71.52;101030.94;5059592;28;20025;-81
2020/12/09 11:38:19;;;;;;;83.78;31.25;;;;;;;4.31;71.41;101039.63;5057657;28;20032;-85
2020/12/09 11:40:45;;;;;;;84.90;32.20;;;;;;;4.22;71.80;101035.19;5058988;28;20037;-84
2020/12/09 11:43:11;;;;;;;84.97;32.05;;;;;;;4.20;71.79;101042.16;5059813;28;20025;-85
2020/12/09 11:45:38;;;;;;;86.68;31.92;;;;;;;4.16;71.44;101036.00;5042614;28;20029;-85
2020/12/09 11:48:04;;;;;;;80.53;31.08;;;;;;;4.14;71.13;101037.72;5046328;28;20025;-86
2020/12/09 11:50:30;;;;;;;84.07;32.35;;;;;;;4.15;71.71;101044.75;5044323;28;20522;-84
2020/12/09 11:52:57;;;;;;;77.32;30.08;;;;;;;4.19;71.42;101038.66;5044969;28;20056;-84
2020/12/09 11:55:23;;;;;;;84.38;32.90;;;;;;;4.06;72.13;101028.91;5045955;28;20112;-84
2020/12/09 11:57:49;;;;;;;80.00;30.60;;;;;;;3.98;72.37;101035.84;5044550;28;20384;-84